Date,TemperatureHighF,TemperatureAvgF,TemperatureLowF,DewpointHighF,DewpointAvgF,DewpointLowF,HumidityHigh,HumidityAvg,HumidityLow,PressureMaxIn,PressureMinIn,WindSpeedMaxMPH,WindSpeedAvgMPH,GustSpeedMaxMPH,PrecipitationSumIn
2013-3-1,54,51,49,49,48,46,98,89,79,30.31,30.24,5,2,13,0.04
2013-3-2,53,46,35,47,42,33,92,86,73,30.23,30.01,4,1,10,0.38
2013-3-3,46,38,33,37,32,28,95,82,53,30.26,30.14,2,0,6,0.00
2013-3-4,52,40,31,32,26,19,84,61,34,30.25,29.87,3,1,7,0.00
2013-3-5,48,42,38,37,32,25,89,68,50,29.87,29.66,2,0,4,0.00
2013-3-6,40,39,37,39,37,35,95,92,89,29.84,29.52,3,1,10,0.46
2013-3-7,47,41,37,43,39,35,96,90,72,30.03,29.84,2,0,6,0.21
2013-3-8,51,39,33,40,36,31,95,86,65,30.19,30.02,2,0,6,0.00
2013-3-9,53,41,34,38,34,29,93,78,44,30.45,30.19,2,0,5,0.00
2013-3-10,43,40,38,40,36,33,91,85,77,30.44,30.38,2,0,4,0.02
2013-3-11,49,43,38,43,40,36,94,87,74,30.40,30.12,2,0,7,0.04
2013-3-12,49,48,45,46,45,43,93,92,89,30.12,30.02,4,3,12,0.00
2013-3-13,50,48,47,48,47,45,95,95,94,30.15,30.05,3,1,12,0.20
2013-3-14,49,48,48,47,47,47,95,95,95,30.05,30.03,1,0,3,0.00
2013-3-15,56,49,45,50,46,43,96,90,71,30.16,30.07,3,2,9,0.01
2013-3-16,46,42,37,43,39,34,93,87,75,30.07,29.83,4,2,12,0.08
2013-3-17,46,39,36,34,33,32,90,79,61,30.14,29.94,4,2,13,0.00
2013-3-18,50,41,36,39,34,28,92,78,45,30.19,30.06,5,2,13,0.00
2013-3-19,55,42,35,40,33,24,90,72,31,30.18,29.54,3,1,11,0.24
2013-3-20,47,43,36,46,39,31,94,87,75,29.97,29.34,6,3,22,0.42
2013-3-21,44,37,33,36,32,30,93,85,63,30.17,29.96,3,1,10,0.03
2013-3-22,43,35,32,34,30,27,94,83,59,30.34,30.17,2,1,5,0.07
2013-3-23,47,37,31,33,27,22,83,68,40,30.35,30.26,2,0,6,0.00
2013-3-24,53,41,32,33,28,24,86,63,34,30.26,30.08,2,0,7,0.00
2013-3-25,59,47,36,35,29,25,67,51,30,30.08,29.89,2,0,10,0.00
2013-3-26,46,46,44,35,34,33,65,62,60,29.91,29.90,0,0,0,0.00
2013-3-27,54,47,44,46,41,37,89,78,60,29.94,29.87,2,0,4,0.03
2013-3-28,58,49,44,48,43,40,93,82,59,30.10,29.93,2,0,6,0.03
2013-3-29,62,51,44,46,43,41,92,78,48,30.19,30.10,2,0,5,0.03
2013-3-30,67,51,41,45,42,39,92,73,42,30.20,30.02,3,1,7,0.00
2013-3-31,68,54,43,46,43,40,91,69,42,30.02,29.87,3,1,6,0.00